sensor_id;sensor_type;location;lat;lon;timestamp;temperature;humidity
15926;DHT22;8062;53.882;10.642;2024-03-08T00:00:31;0.40;99.90
15926;DHT22;8062;53.882;10.642;2024-03-08T00:01:52;0.30;99.90
15926;DHT22;8062;53.882;10.642;2024-03-08T00:03:12;0.40;99.90
15926;DHT22;8062;53.882;10.642;2024-03-08T00:04:31;0.40;99.90
15926;DHT22;8062;53.882;10.642;2024-03-08T00:05:51;0.40;99.90
15926;DHT22;8062;53.882;10.642;2024-03-08T00:07:10;0.30;99.90
15926;DHT22;8062;53.882;10.642;2024-03-08T00:08:30;0.30;99.90
15926;DHT22;8062;53.882;10.642;2024-03-08T00:09:50;0.30;99.90
15926;DHT22;8062;53.882;10.642;2024-03-08T00:11:09;0.30;99.90
15926;DHT22;8062;53.882;10.642;2024-03-08T00:12:29;0.30;99.90
15926;DHT22;8062;53.882;10.642;2024-03-08T00:13:48;0.30;99.90
15926;DHT22;8062;53.882;10.642;2024-03-08T00:15:13;0.30;99.90
15926;DHT22;8062;53.882;10.642;2024-03-08T00:16:33;0.20;99.90
15926;DHT22;8062;53.882;10.642;2024-03-08T00:17:53;0.30;99.90
15926;DHT22;8062;53.882;10.642;2024-03-08T00:19:13;0.20;99.90
15926;DHT22;8062;53.882;10.642;2024-03-08T00:20:32;0.20;99.90
15926;DHT22;8062;53.882;10.642;2024-03-08T00:21:52;0.20;99.90
15926;DHT22;8062;53.882;10.642;2024-03-08T00:23:12;0.20;99.90
15926;DHT22;8062;53.882;10.642;2024-03-08T00:24:31;0.20;99.90
15926;DHT22;8062;53.882;10.642;2024-03-08T00:25:51;0.20;99.90
15926;DHT22;8062;53.882;10.642;2024-03-08T00:27:11;0.20;99.90
15926;DHT22;8062;53.882;10.642;2024-03-08T00:28:30;0.10;99.90
15926;DHT22;8062;53.882;10.642;2024-03-08T00:29:50;0.10;99.90
15926;DHT22;8062;53.882;10.642;2024-03-08T00:31:09;0.20;99.90
15926;DHT22;8062;53.882;10.642;2024-03-08T00:32:29;0.10;99.90
15926;DHT22;8062;53.882;10.642;2024-03-08T00:33:49;0.10;99.90
15926;DHT22;8062;53.882;10.642;2024-03-08T00:35:09;0.10;99.90
15926;DHT22;8062;53.882;10.642;2024-03-08T00:36:28;0.00;99.90
15926;DHT22;8062;53.882;10.642;2024-03-08T00:37:49;0.00;99.90
15926;DHT22;8062;53.882;10.642;2024-03-08T00:39:09;0.00;99.90
15926;DHT22;8062;53.882;10.642;2024-03-08T00:40:29;0.00;99.90
15926;DHT22;8062;53.882;10.642;2024-03-08T00:41:49;-0.10;99.90
15926;DHT22;8062;53.882;10.642;2024-03-08T00:43:08;-0.10;99.90
15926;DHT22;8062;53.882;10.642;2024-03-08T00:44:27;-0.10;99.90
15926;DHT22;8062;53.882;10.642;2024-03-08T00:45:47;-0.10;99.90
15926;DHT22;8062;53.882;10.642;2024-03-08T00:47:06;-0.10;99.90
15926;DHT22;8062;53.882;10.642;2024-03-08T00:48:26;-0.20;99.90
15926;DHT22;8062;53.882;10.642;2024-03-08T00:49:45;-0.10;99.90
15926;DHT22;8062;53.882;10.642;2024-03-08T00:51:05;-0.20;99.90
15926;DHT22;8062;53.882;10.642;2024-03-08T00:52:25;-0.10;99.90
15926;DHT22;8062;53.882;10.642;2024-03-08T00:53:44;-0.10;99.90
15926;DHT22;8062;53.882;10.642;2024-03-08T00:55:04;-0.10;99.90
15926;DHT22;8062;53.882;10.642;2024-03-08T00:56:24;-0.10;99.90
15926;DHT22;8062;53.882;10.642;2024-03-08T00:57:44;-0.10;99.90
15926;DHT22;8062;53.882;10.642;2024-03-08T00:59:04;-0.20;99.90
15926;DHT22;8062;53.882;10.642;2024-03-08T01:00:23;-0.20;99.90
15926;DHT22;8062;53.882;10.642;2024-03-08T01:01:43;-0.20;99.90
15926;DHT22;8062;53.882;10.642;2024-03-08T01:03:03;-0.20;99.90
15926;DHT22;8062;53.882;10.642;2024-03-08T01:04:23;-0.20;99.90
15926;DHT22;8062;53.882;10.642;2024-03-08T01:05:44;-0.20;99.90
15926;DHT22;8062;53.882;10.642;2024-03-08T01:07:04;-0.20;99.90
15926;DHT22;8062;53.882;10.642;2024-03-08T01:08:25;-0.20;99.90
15926;DHT22;8062;53.882;10.642;2024-03-08T01:09:44;-0.10;99.90
15926;DHT22;8062;53.882;10.642;2024-03-08T01:11:04;-0.10;99.90
15926;DHT22;8062;53.882;10.642;2024-03-08T01:12:28;-0.10;99.90
15926;DHT22;8062;53.882;10.642;2024-03-08T01:13:48;-0.10;99.90
15926;DHT22;8062;53.882;10.642;2024-03-08T01:15:09;-0.10;99.90
15926;DHT22;8062;53.882;10.642;2024-03-08T01:16:29;-0.10;99.90
15926;DHT22;8062;53.882;10.642;2024-03-08T01:17:49;-0.10;99.90
15926;DHT22;8062;53.882;10.642;2024-03-08T01:19:09;-0.10;99.90
15926;DHT22;8062;53.882;10.642;2024-03-08T01:20:28;-0.20;99.90
15926;DHT22;8062;53.882;10.642;2024-03-08T01:21:48;-0.20;99.90
15926;DHT22;8062;53.882;10.642;2024-03-08T01:23:08;-0.20;99.90
15926;DHT22;8062;53.882;10.642;2024-03-08T01:24:28;-0.20;99.90
15926;DHT22;8062;53.882;10.642;2024-03-08T01:25:47;-0.20;99.90
15926;DHT22;8062;53.882;10.642;2024-03-08T01:27:15;-0.20;99.90
15926;DHT22;8062;53.882;10.642;2024-03-08T01:28:35;-0.30;99.90
15926;DHT22;8062;53.882;10.642;2024-03-08T01:29:55;-0.20;99.90
15926;DHT22;8062;53.882;10.642;2024-03-08T01:31:14;-0.20;99.90
15926;DHT22;8062;53.882;10.642;2024-03-08T01:32:33;-0.20;99.90
15926;DHT22;8062;53.882;10.642;2024-03-08T01:33:53;-0.20;99.90
15926;DHT22;8062;53.882;10.642;2024-03-08T01:35:12;-0.20;99.90
15926;DHT22;8062;53.882;10.642;2024-03-08T01:36:32;-0.20;99.90
15926;DHT22;8062;53.882;10.642;2024-03-08T01:37:51;-0.20;99.90
15926;DHT22;8062;53.882;10.642;2024-03-08T01:39:11;-0.20;99.90
15926;DHT22;8062;53.882;10.642;2024-03-08T01:40:30;-0.20;99.90
15926;DHT22;8062;53.882;10.642;2024-03-08T01:41:50;-0.20;99.90
15926;DHT22;8062;53.882;10.642;2024-03-08T01:43:26;-0.20;99.90
15926;DHT22;8062;53.882;10.642;2024-03-08T01:44:49;-0.20;99.90
15926;DHT22;8062;53.882;10.642;2024-03-08T01:46:09;-0.10;99.90
15926;DHT22;8062;53.882;10.642;2024-03-08T01:47:28;-0.20;99.90
15926;DHT22;8062;53.882;10.642;2024-03-08T01:48:48;-0.10;99.90
15926;DHT22;8062;53.882;10.642;2024-03-08T01:50:10;-0.10;99.90
15926;DHT22;8062;53.882;10.642;2024-03-08T01:51:29;-0.10;99.90
15926;DHT22;8062;53.882;10.642;2024-03-08T01:52:50;-0.10;99.90
15926;DHT22;8062;53.882;10.642;2024-03-08T01:54:10;-0.10;99.90
15926;DHT22;8062;53.882;10.642;2024-03-08T01:55:30;-0.10;99.90
15926;DHT22;8062;53.882;10.642;2024-03-08T01:56:50;-0.10;99.90
15926;DHT22;8062;53.882;10.642;2024-03-08T01:58:10;-0.10;99.90
15926;DHT22;8062;53.882;10.642;2024-03-08T01:59:31;-0.10;99.90
15926;DHT22;8062;53.882;10.642;2024-03-08T02:00:50;-0.10;99.90
15926;DHT22;8062;53.882;10.642;2024-03-08T02:02:14;-0.10;99.90
15926;DHT22;8062;53.882;10.642;2024-03-08T02:03:37;-0.10;99.90
15926;DHT22;8062;53.882;10.642;2024-03-08T02:04:57;-0.10;99.90
15926;DHT22;8062;53.882;10.642;2024-03-08T02:06:16;-0.10;99.90
15926;DHT22;8062;53.882;10.642;2024-03-08T02:07:36;0.00;99.90
15926;DHT22;8062;53.882;10.642;2024-03-08T02:08:57;0.00;99.90
15926;DHT22;8062;53.882;10.642;2024-03-08T02:10:16;-0.10;99.90
15926;DHT22;8062;53.882;10.642;2024-03-08T02:11:36;-0.10;99.90
15926;DHT22;8062;53.882;10.642;2024-03-08T02:12:55;0.00;99.90
15926;DHT22;8062;53.882;10.642;2024-03-08T02:14:15;0.00;99.90
15926;DHT22;8062;53.882;10.642;2024-03-08T02:16:10;-0.10;99.90
15926;DHT22;8062;53.882;10.642;2024-03-08T02:17:30;-0.10;99.90
15926;DHT22;8062;53.882;10.642;2024-03-08T02:18:49;-0.10;99.90
15926;DHT22;8062;53.882;10.642;2024-03-08T02:20:09;-0.10;99.90
15926;DHT22;8062;53.882;10.642;2024-03-08T02:21:30;-0.10;99.90
15926;DHT22;8062;53.882;10.642;2024-03-08T02:22:51;-0.10;99.90
15926;DHT22;8062;53.882;10.642;2024-03-08T02:24:10;-0.10;99.90
15926;DHT22;8062;53.882;10.642;2024-03-08T02:25:29;-0.10;99.90
15926;DHT22;8062;53.882;10.642;2024-03-08T02:26:50;-0.10;99.90
15926;DHT22;8062;53.882;10.642;2024-03-08T02:28:11;-0.10;99.90
15926;DHT22;8062;53.882;10.642;2024-03-08T02:29:31;-0.20;99.90
15926;DHT22;8062;53.882;10.642;2024-03-08T02:30:53;-0.20;99.90
15926;DHT22;8062;53.882;10.642;2024-03-08T02:32:15;-0.20;99.90
15926;DHT22;8062;53.882;10.642;2024-03-08T02:33:35;-0.20;99.90
15926;DHT22;8062;53.882;10.642;2024-03-08T02:34:58;-0.20;99.90
15926;DHT22;8062;53.882;10.642;2024-03-08T02:36:19;-0.20;99.90
15926;DHT22;8062;53.882;10.642;2024-03-08T02:37:39;-0.20;99.90
15926;DHT22;8062;53.882;10.642;2024-03-08T02:38:58;-0.20;99.90
15926;DHT22;8062;53.882;10.642;2024-03-08T02:40:17;-0.20;99.90
15926;DHT22;8062;53.882;10.642;2024-03-08T02:41:37;-0.20;99.90
15926;DHT22;8062;53.882;10.642;2024-03-08T02:42:56;-0.20;99.90
15926;DHT22;8062;53.882;10.642;2024-03-08T02:44:16;-0.30;99.90
15926;DHT22;8062;53.882;10.642;2024-03-08T02:45:36;-0.30;99.90
15926;DHT22;8062;53.882;10.642;2024-03-08T02:46:55;-0.30;99.90
15926;DHT22;8062;53.882;10.642;2024-03-08T02:48:15;-0.40;99.90
15926;DHT22;8062;53.882;10.642;2024-03-08T02:49:38;-0.40;99.90
15926;DHT22;8062;53.882;10.642;2024-03-08T02:50:58;-0.40;99.90
15926;DHT22;8062;53.882;10.642;2024-03-08T02:52:18;-0.40;99.90
15926;DHT22;8062;53.882;10.642;2024-03-08T02:53:39;-0.50;99.90
15926;DHT22;8062;53.882;10.642;2024-03-08T02:54:59;-0.50;99.90
15926;DHT22;8062;53.882;10.642;2024-03-08T02:56:18;-0.50;99.90
15926;DHT22;8062;53.882;10.642;2024-03-08T02:57:38;-0.60;99.90
15926;DHT22;8062;53.882;10.642;2024-03-08T02:58:57;-0.60;99.90
15926;DHT22;8062;53.882;10.642;2024-03-08T03:00:17;-0.50;99.90
15926;DHT22;8062;53.882;10.642;2024-03-08T03:01:38;-0.60;99.90
15926;DHT22;8062;53.882;10.642;2024-03-08T03:02:58;-0.50;99.90
15926;DHT22;8062;53.882;10.642;2024-03-08T03:04:18;-0.60;99.90
15926;DHT22;8062;53.882;10.642;2024-03-08T03:05:37;-0.60;99.90
15926;DHT22;8062;53.882;10.642;2024-03-08T03:06:57;-0.50;99.90
15926;DHT22;8062;53.882;10.642;2024-03-08T03:08:17;-0.50;99.90
15926;DHT22;8062;53.882;10.642;2024-03-08T03:09:37;-0.60;99.90
15926;DHT22;8062;53.882;10.642;2024-03-08T03:10:56;-0.60;99.90
15926;DHT22;8062;53.882;10.642;2024-03-08T03:12:16;-0.60;99.90
15926;DHT22;8062;53.882;10.642;2024-03-08T03:13:35;-0.60;99.90
15926;DHT22;8062;53.882;10.642;2024-03-08T03:14:55;-0.60;99.90
15926;DHT22;8062;53.882;10.642;2024-03-08T03:16:19;-0.60;99.90
15926;DHT22;8062;53.882;10.642;2024-03-08T03:17:49;-0.60;99.90
15926;DHT22;8062;53.882;10.642;2024-03-08T03:19:10;-0.60;99.90
15926;DHT22;8062;53.882;10.642;2024-03-08T03:20:29;-0.70;99.90
15926;DHT22;8062;53.882;10.642;2024-03-08T03:21:52;-0.70;99.90
15926;DHT22;8062;53.882;10.642;2024-03-08T03:23:11;-0.70;99.90
15926;DHT22;8062;53.882;10.642;2024-03-08T03:24:33;-0.70;99.90
15926;DHT22;8062;53.882;10.642;2024-03-08T03:25:53;-0.70;99.90
15926;DHT22;8062;53.882;10.642;2024-03-08T03:27:16;-0.80;99.90
15926;DHT22;8062;53.882;10.642;2024-03-08T03:28:36;-0.90;99.90
15926;DHT22;8062;53.882;10.642;2024-03-08T03:29:58;-0.90;99.90
15926;DHT22;8062;53.882;10.642;2024-03-08T03:31:26;-0.90;99.90
15926;DHT22;8062;53.882;10.642;2024-03-08T03:32:45;-0.80;99.90
15926;DHT22;8062;53.882;10.642;2024-03-08T03:34:06;-0.80;99.90
15926;DHT22;8062;53.882;10.642;2024-03-08T03:35:28;-0.80;99.90
15926;DHT22;8062;53.882;10.642;2024-03-08T03:36:48;-0.80;99.90
15926;DHT22;8062;53.882;10.642;2024-03-08T03:38:09;-0.80;99.90
15926;DHT22;8062;53.882;10.642;2024-03-08T03:39:29;-0.90;99.90
15926;DHT22;8062;53.882;10.642;2024-03-08T03:40:52;-0.90;99.90
15926;DHT22;8062;53.882;10.642;2024-03-08T03:42:16;-0.90;99.90
15926;DHT22;8062;53.882;10.642;2024-03-08T03:43:37;-0.90;99.90
15926;DHT22;8062;53.882;10.642;2024-03-08T03:44:59;-0.90;99.90
15926;DHT22;8062;53.882;10.642;2024-03-08T03:46:19;-0.90;99.90
15926;DHT22;8062;53.882;10.642;2024-03-08T03:47:38;-1.00;99.90
15926;DHT22;8062;53.882;10.642;2024-03-08T03:48:58;-1.00;99.90
15926;DHT22;8062;53.882;10.642;2024-03-08T03:50:18;-1.00;99.90
15926;DHT22;8062;53.882;10.642;2024-03-08T03:51:38;-1.00;99.90
15926;DHT22;8062;53.882;10.642;2024-03-08T03:52:58;-1.00;99.90
15926;DHT22;8062;53.882;10.642;2024-03-08T03:54:17;-1.10;99.90
15926;DHT22;8062;53.882;10.642;2024-03-08T03:55:37;-1.10;99.90
15926;DHT22;8062;53.882;10.642;2024-03-08T03:56:57;-1.10;99.90
15926;DHT22;8062;53.882;10.642;2024-03-08T03:58:17;-1.10;99.90
15926;DHT22;8062;53.882;10.642;2024-03-08T03:59:41;-1.10;99.90
15926;DHT22;8062;53.882;10.642;2024-03-08T04:01:01;-1.20;99.90
15926;DHT22;8062;53.882;10.642;2024-03-08T04:02:20;-1.20;99.90
15926;DHT22;8062;53.882;10.642;2024-03-08T04:03:41;-1.30;99.90
15926;DHT22;8062;53.882;10.642;2024-03-08T04:05:02;-1.30;99.90
15926;DHT22;8062;53.882;10.642;2024-03-08T04:06:22;-1.20;99.90
15926;DHT22;8062;53.882;10.642;2024-03-08T04:07:42;-1.20;99.90
15926;DHT22;8062;53.882;10.642;2024-03-08T04:09:02;-1.20;99.90
15926;DHT22;8062;53.882;10.642;2024-03-08T04:10:21;-1.20;99.90
15926;DHT22;8062;53.882;10.642;2024-03-08T04:11:40;-1.20;99.90
15926;DHT22;8062;53.882;10.642;2024-03-08T04:13:00;-1.20;99.90
15926;DHT22;8062;53.882;10.642;2024-03-08T04:14:19;-1.20;99.90
15926;DHT22;8062;53.882;10.642;2024-03-08T04:15:38;-1.10;99.90
15926;DHT22;8062;53.882;10.642;2024-03-08T04:16:58;-1.10;99.90
15926;DHT22;8062;53.882;10.642;2024-03-08T04:18:17;-1.00;99.90
15926;DHT22;8062;53.882;10.642;2024-03-08T04:19:38;-1.00;99.90
15926;DHT22;8062;53.882;10.642;2024-03-08T04:20:59;-0.90;99.90
15926;DHT22;8062;53.882;10.642;2024-03-08T04:22:18;-0.90;99.90
15926;DHT22;8062;53.882;10.642;2024-03-08T04:23:38;-0.90;99.90
15926;DHT22;8062;53.882;10.642;2024-03-08T04:24:57;-0.90;99.90
15926;DHT22;8062;53.882;10.642;2024-03-08T04:26:17;-0.90;99.90
15926;DHT22;8062;53.882;10.642;2024-03-08T04:27:38;-0.80;99.90
15926;DHT22;8062;53.882;10.642;2024-03-08T04:28:57;-0.80;99.90
15926;DHT22;8062;53.882;10.642;2024-03-08T04:30:16;-0.70;99.90
15926;DHT22;8062;53.882;10.642;2024-03-08T04:31:36;-0.70;99.90
15926;DHT22;8062;53.882;10.642;2024-03-08T04:32:57;-0.70;99.90
15926;DHT22;8062;53.882;10.642;2024-03-08T04:34:16;-0.70;99.90
15926;DHT22;8062;53.882;10.642;2024-03-08T04:35:36;-0.60;99.90
15926;DHT22;8062;53.882;10.642;2024-03-08T04:36:57;-0.50;99.90
15926;DHT22;8062;53.882;10.642;2024-03-08T04:38:17;-0.50;99.90
15926;DHT22;8062;53.882;10.642;2024-03-08T04:39:37;-0.50;99.90
15926;DHT22;8062;53.882;10.642;2024-03-08T04:40:57;-0.40;99.90
15926;DHT22;8062;53.882;10.642;2024-03-08T04:42:17;-0.40;99.90
15926;DHT22;8062;53.882;10.642;2024-03-08T04:43:37;-0.40;99.90
15926;DHT22;8062;53.882;10.642;2024-03-08T04:44:57;-0.40;99.90
15926;DHT22;8062;53.882;10.642;2024-03-08T04:46:17;-0.40;99.90
15926;DHT22;8062;53.882;10.642;2024-03-08T04:47:36;-0.40;99.90
15926;DHT22;8062;53.882;10.642;2024-03-08T04:48:56;-0.40;99.90
15926;DHT22;8062;53.882;10.642;2024-03-08T04:50:16;-0.30;99.90
15926;DHT22;8062;53.882;10.642;2024-03-08T04:51:35;-0.30;99.90
15926;DHT22;8062;53.882;10.642;2024-03-08T04:52:55;-0.30;99.90
15926;DHT22;8062;53.882;10.642;2024-03-08T04:54:15;-0.30;99.90
15926;DHT22;8062;53.882;10.642;2024-03-08T04:55:35;-0.30;99.90
15926;DHT22;8062;53.882;10.642;2024-03-08T04:56:54;-0.30;99.90
15926;DHT22;8062;53.882;10.642;2024-03-08T04:58:13;-0.30;99.90
15926;DHT22;8062;53.882;10.642;2024-03-08T04:59:33;-0.30;99.90
15926;DHT22;8062;53.882;10.642;2024-03-08T05:00:52;-0.30;99.90
15926;DHT22;8062;53.882;10.642;2024-03-08T05:02:12;-0.30;99.90
15926;DHT22;8062;53.882;10.642;2024-03-08T05:03:31;-0.30;99.90
15926;DHT22;8062;53.882;10.642;2024-03-08T05:04:50;-0.30;99.90
15926;DHT22;8062;53.882;10.642;2024-03-08T05:06:10;-0.30;99.90
15926;DHT22;8062;53.882;10.642;2024-03-08T05:07:29;-0.30;99.90
15926;DHT22;8062;53.882;10.642;2024-03-08T05:08:49;-0.30;99.90
15926;DHT22;8062;53.882;10.642;2024-03-08T05:10:09;-0.30;99.90
15926;DHT22;8062;53.882;10.642;2024-03-08T05:11:28;-0.20;99.90
15926;DHT22;8062;53.882;10.642;2024-03-08T05:12:48;-0.30;99.90
15926;DHT22;8062;53.882;10.642;2024-03-08T05:14:07;-0.30;99.90
15926;DHT22;8062;53.882;10.642;2024-03-08T05:15:27;-0.30;99.90
15926;DHT22;8062;53.882;10.642;2024-03-08T05:16:47;-0.30;99.90
15926;DHT22;8062;53.882;10.642;2024-03-08T05:18:09;-0.30;99.90
15926;DHT22;8062;53.882;10.642;2024-03-08T05:19:30;-0.30;99.90
15926;DHT22;8062;53.882;10.642;2024-03-08T05:20:50;-0.30;99.90
15926;DHT22;8062;53.882;10.642;2024-03-08T05:22:11;-0.20;99.90
15926;DHT22;8062;53.882;10.642;2024-03-08T05:23:30;-0.20;99.90
15926;DHT22;8062;53.882;10.642;2024-03-08T05:24:50;-0.30;99.90
15926;DHT22;8062;53.882;10.642;2024-03-08T05:26:09;-0.30;99.90
15926;DHT22;8062;53.882;10.642;2024-03-08T05:27:29;-0.30;99.90
15926;DHT22;8062;53.882;10.642;2024-03-08T05:28:48;-0.30;99.90
15926;DHT22;8062;53.882;10.642;2024-03-08T05:30:08;-0.20;99.90
15926;DHT22;8062;53.882;10.642;2024-03-08T05:31:42;-0.20;99.90
15926;DHT22;8062;53.882;10.642;2024-03-08T05:33:04;-0.20;99.90
15926;DHT22;8062;53.882;10.642;2024-03-08T05:34:24;-0.20;99.90
15926;DHT22;8062;53.882;10.642;2024-03-08T05:35:44;-0.20;99.90
15926;DHT22;8062;53.882;10.642;2024-03-08T05:37:03;-0.20;99.90
15926;DHT22;8062;53.882;10.642;2024-03-08T05:38:23;-0.20;99.90
15926;DHT22;8062;53.882;10.642;2024-03-08T05:39:43;-0.30;99.90
15926;DHT22;8062;53.882;10.642;2024-03-08T05:41:03;-0.30;99.90
15926;DHT22;8062;53.882;10.642;2024-03-08T05:42:24;-0.30;99.90
15926;DHT22;8062;53.882;10.642;2024-03-08T05:43:43;-0.30;99.90
15926;DHT22;8062;53.882;10.642;2024-03-08T05:45:04;-0.40;99.90
15926;DHT22;8062;53.882;10.642;2024-03-08T05:46:25;-0.30;99.90
15926;DHT22;8062;53.882;10.642;2024-03-08T05:47:45;-0.40;99.90
15926;DHT22;8062;53.882;10.642;2024-03-08T05:49:08;-0.40;99.90
15926;DHT22;8062;53.882;10.642;2024-03-08T05:50:29;-0.40;99.90
15926;DHT22;8062;53.882;10.642;2024-03-08T05:51:49;-0.40;99.90
15926;DHT22;8062;53.882;10.642;2024-03-08T05:53:08;-0.50;99.90
15926;DHT22;8062;53.882;10.642;2024-03-08T05:54:28;-0.50;99.90
15926;DHT22;8062;53.882;10.642;2024-03-08T05:55:48;-0.50;99.90
15926;DHT22;8062;53.882;10.642;2024-03-08T05:57:08;-0.50;99.90
15926;DHT22;8062;53.882;10.642;2024-03-08T05:58:28;-0.50;99.90
15926;DHT22;8062;53.882;10.642;2024-03-08T05:59:49;-0.50;99.90
15926;DHT22;8062;53.882;10.642;2024-03-08T06:01:09;-0.50;99.90
15926;DHT22;8062;53.882;10.642;2024-03-08T06:02:31;-0.50;99.90
15926;DHT22;8062;53.882;10.642;2024-03-08T06:03:52;-0.50;99.90
15926;DHT22;8062;53.882;10.642;2024-03-08T06:05:14;-0.50;99.90
15926;DHT22;8062;53.882;10.642;2024-03-08T06:06:34;-0.50;99.90
15926;DHT22;8062;53.882;10.642;2024-03-08T06:07:53;-0.40;99.90
15926;DHT22;8062;53.882;10.642;2024-03-08T06:09:13;-0.40;99.90
15926;DHT22;8062;53.882;10.642;2024-03-08T06:10:36;-0.40;99.90
15926;DHT22;8062;53.882;10.642;2024-03-08T06:11:56;-0.40;99.90
15926;DHT22;8062;53.882;10.642;2024-03-08T06:13:16;-0.40;99.90
15926;DHT22;8062;53.882;10.642;2024-03-08T06:14:36;-0.30;99.90
15926;DHT22;8062;53.882;10.642;2024-03-08T06:15:55;-0.30;99.90
15926;DHT22;8062;53.882;10.642;2024-03-08T06:17:15;-0.30;99.90
15926;DHT22;8062;53.882;10.642;2024-03-08T06:18:35;-0.30;99.90
15926;DHT22;8062;53.882;10.642;2024-03-08T06:19:58;-0.30;99.90
15926;DHT22;8062;53.882;10.642;2024-03-08T06:21:18;-0.30;99.90
15926;DHT22;8062;53.882;10.642;2024-03-08T06:22:37;-0.20;99.90
15926;DHT22;8062;53.882;10.642;2024-03-08T06:23:59;-0.20;99.90
15926;DHT22;8062;53.882;10.642;2024-03-08T06:25:19;-0.20;99.90
15926;DHT22;8062;53.882;10.642;2024-03-08T06:26:39;-0.20;99.90
15926;DHT22;8062;53.882;10.642;2024-03-08T06:28:00;-0.20;99.90
15926;DHT22;8062;53.882;10.642;2024-03-08T06:29:19;-0.20;99.90
15926;DHT22;8062;53.882;10.642;2024-03-08T06:30:39;-0.20;99.90
15926;DHT22;8062;53.882;10.642;2024-03-08T06:31:58;-0.20;99.90
15926;DHT22;8062;53.882;10.642;2024-03-08T06:33:19;-0.20;99.90
15926;DHT22;8062;53.882;10.642;2024-03-08T06:34:38;-0.20;99.90
15926;DHT22;8062;53.882;10.642;2024-03-08T06:35:58;-0.20;99.90
15926;DHT22;8062;53.882;10.642;2024-03-08T06:37:17;-0.10;99.90
15926;DHT22;8062;53.882;10.642;2024-03-08T06:38:41;-0.10;99.90
15926;DHT22;8062;53.882;10.642;2024-03-08T06:40:02;-0.20;99.90
15926;DHT22;8062;53.882;10.642;2024-03-08T06:41:23;-0.20;99.90
15926;DHT22;8062;53.882;10.642;2024-03-08T06:42:42;-0.20;99.90
15926;DHT22;8062;53.882;10.642;2024-03-08T06:44:02;-0.20;99.90
15926;DHT22;8062;53.882;10.642;2024-03-08T06:45:21;-0.20;99.90
15926;DHT22;8062;53.882;10.642;2024-03-08T06:46:42;-0.20;99.90
15926;DHT22;8062;53.882;10.642;2024-03-08T06:48:02;-0.20;99.90
15926;DHT22;8062;53.882;10.642;2024-03-08T06:49:21;-0.20;99.90
15926;DHT22;8062;53.882;10.642;2024-03-08T06:50:41;-0.20;99.90
15926;DHT22;8062;53.882;10.642;2024-03-08T06:52:01;-0.30;99.90
15926;DHT22;8062;53.882;10.642;2024-03-08T06:53:20;-0.30;99.90
15926;DHT22;8062;53.882;10.642;2024-03-08T06:54:40;-0.20;99.90
15926;DHT22;8062;53.882;10.642;2024-03-08T06:56:00;-0.20;99.90
15926;DHT22;8062;53.882;10.642;2024-03-08T06:57:19;-0.20;99.90
15926;DHT22;8062;53.882;10.642;2024-03-08T06:58:42;-0.20;99.90
15926;DHT22;8062;53.882;10.642;2024-03-08T07:00:01;-0.10;99.90
15926;DHT22;8062;53.882;10.642;2024-03-08T07:01:22;-0.10;99.90
15926;DHT22;8062;53.882;10.642;2024-03-08T07:02:41;-0.20;99.90
15926;DHT22;8062;53.882;10.642;2024-03-08T07:04:01;-0.10;99.90
15926;DHT22;8062;53.882;10.642;2024-03-08T07:05:24;-0.10;99.90
15926;DHT22;8062;53.882;10.642;2024-03-08T07:06:44;-0.10;99.90
15926;DHT22;8062;53.882;10.642;2024-03-08T07:08:04;-0.10;99.90
15926;DHT22;8062;53.882;10.642;2024-03-08T07:09:25;0.00;99.90
15926;DHT22;8062;53.882;10.642;2024-03-08T07:10:45;0.00;99.90
15926;DHT22;8062;53.882;10.642;2024-03-08T07:12:04;0.10;99.90
15926;DHT22;8062;53.882;10.642;2024-03-08T07:13:23;0.10;99.90
15926;DHT22;8062;53.882;10.642;2024-03-08T07:14:43;0.10;99.90
15926;DHT22;8062;53.882;10.642;2024-03-08T07:16:05;0.10;99.90
15926;DHT22;8062;53.882;10.642;2024-03-08T07:17:24;0.10;99.90
15926;DHT22;8062;53.882;10.642;2024-03-08T07:18:45;0.10;99.90
15926;DHT22;8062;53.882;10.642;2024-03-08T07:20:06;0.10;99.90
15926;DHT22;8062;53.882;10.642;2024-03-08T07:21:30;0.00;99.90
15926;DHT22;8062;53.882;10.642;2024-03-08T07:22:50;0.10;99.90
15926;DHT22;8062;53.882;10.642;2024-03-08T07:24:14;0.10;99.90
15926;DHT22;8062;53.882;10.642;2024-03-08T07:25:36;0.10;99.90
15926;DHT22;8062;53.882;10.642;2024-03-08T07:26:58;0.20;99.90
15926;DHT22;8062;53.882;10.642;2024-03-08T07:28:18;0.20;99.90
15926;DHT22;8062;53.882;10.642;2024-03-08T07:29:38;0.20;99.90
15926;DHT22;8062;53.882;10.642;2024-03-08T07:30:58;0.20;99.90
15926;DHT22;8062;53.882;10.642;2024-03-08T07:32:32;0.20;99.90
15926;DHT22;8062;53.882;10.642;2024-03-08T07:33:53;0.20;99.90
15926;DHT22;8062;53.882;10.642;2024-03-08T07:35:13;0.30;99.90
15926;DHT22;8062;53.882;10.642;2024-03-08T07:36:35;0.30;99.90
15926;DHT22;8062;53.882;10.642;2024-03-08T07:37:55;0.30;99.90
15926;DHT22;8062;53.882;10.642;2024-03-08T07:39:14;0.30;99.90
15926;DHT22;8062;53.882;10.642;2024-03-08T07:40:38;0.40;99.90
15926;DHT22;8062;53.882;10.642;2024-03-08T07:41:59;0.60;99.90
15926;DHT22;8062;53.882;10.642;2024-03-08T07:43:20;0.70;99.90
15926;DHT22;8062;53.882;10.642;2024-03-08T07:44:39;0.90;99.90
15926;DHT22;8062;53.882;10.642;2024-03-08T07:45:59;0.90;99.90
15926;DHT22;8062;53.882;10.642;2024-03-08T07:47:18;1.00;99.90
15926;DHT22;8062;53.882;10.642;2024-03-08T07:48:38;1.00;99.90
15926;DHT22;8062;53.882;10.642;2024-03-08T07:49:59;1.00;99.90
15926;DHT22;8062;53.882;10.642;2024-03-08T07:51:19;0.90;99.90
15926;DHT22;8062;53.882;10.642;2024-03-08T07:52:39;0.80;99.90
15926;DHT22;8062;53.882;10.642;2024-03-08T07:54:00;0.80;99.90
15926;DHT22;8062;53.882;10.642;2024-03-08T07:55:19;0.80;99.90
15926;DHT22;8062;53.882;10.642;2024-03-08T07:56:38;0.80;99.90
15926;DHT22;8062;53.882;10.642;2024-03-08T07:57:58;0.90;99.90
15926;DHT22;8062;53.882;10.642;2024-03-08T07:59:18;0.90;99.90
15926;DHT22;8062;53.882;10.642;2024-03-08T08:00:38;0.90;99.90
15926;DHT22;8062;53.882;10.642;2024-03-08T08:01:57;0.90;99.90
15926;DHT22;8062;53.882;10.642;2024-03-08T08:03:17;1.00;99.90
15926;DHT22;8062;53.882;10.642;2024-03-08T08:04:40;1.10;99.90
15926;DHT22;8062;53.882;10.642;2024-03-08T08:05:59;1.20;99.90
15926;DHT22;8062;53.882;10.642;2024-03-08T08:07:19;1.40;99.90
15926;DHT22;8062;53.882;10.642;2024-03-08T08:08:38;1.40;99.90
15926;DHT22;8062;53.882;10.642;2024-03-08T08:09:57;1.40;99.90
15926;DHT22;8062;53.882;10.642;2024-03-08T08:11:17;1.40;99.90
15926;DHT22;8062;53.882;10.642;2024-03-08T08:12:37;1.40;99.90
15926;DHT22;8062;53.882;10.642;2024-03-08T08:13:56;1.40;99.90
15926;DHT22;8062;53.882;10.642;2024-03-08T08:15:16;1.30;99.90
15926;DHT22;8062;53.882;10.642;2024-03-08T08:16:36;1.30;99.90
15926;DHT22;8062;53.882;10.642;2024-03-08T08:18:02;1.30;99.90
15926;DHT22;8062;53.882;10.642;2024-03-08T08:19:24;1.20;99.90
15926;DHT22;8062;53.882;10.642;2024-03-08T08:20:46;1.30;99.90
15926;DHT22;8062;53.882;10.642;2024-03-08T08:22:05;1.30;99.90
15926;DHT22;8062;53.882;10.642;2024-03-08T08:23:27;1.40;99.90
15926;DHT22;8062;53.882;10.642;2024-03-08T08:24:47;1.40;99.90
15926;DHT22;8062;53.882;10.642;2024-03-08T08:26:07;1.30;99.90
15926;DHT22;8062;53.882;10.642;2024-03-08T08:27:27;1.30;99.90
15926;DHT22;8062;53.882;10.642;2024-03-08T08:28:46;1.30;99.90
15926;DHT22;8062;53.882;10.642;2024-03-08T08:30:06;1.30;99.90